sensor_id;sensor_type;location;lat;lon;timestamp;pressure;altitude;pressure_sealevel;temperature;humidity
24230;BME280;12362;50.004;8.006;2023-02-15T00:01:51;102221.88;;;2.71;100.00
24230;BME280;12362;50.004;8.006;2023-02-15T00:04:20;102220.09;;;2.66;100.00
24230;BME280;12362;50.004;8.006;2023-02-15T00:06:46;102218.38;;;2.68;100.00
24230;BME280;12362;50.004;8.006;2023-02-15T00:09:14;102213.19;;;2.64;100.00
24230;BME280;12362;50.004;8.006;2023-02-15T00:11:40;102216.59;;;2.61;100.00
24230;BME280;12362;50.004;8.006;2023-02-15T00:16:35;102209.09;;;2.76;100.00
24230;BME280;12362;50.004;8.006;2023-02-15T00:19:01;102209.94;;;2.76;100.00
24230;BME280;12362;50.004;8.006;2023-02-15T00:21:29;102203.88;;;2.68;100.00
24230;BME280;12362;50.004;8.006;2023-02-15T00:23:56;102206.19;;;2.51;100.00
24230;BME280;12362;50.004;8.006;2023-02-15T00:26:22;102202.78;;;2.50;100.00
24230;BME280;12362;50.004;8.006;2023-02-15T00:28:48;102203.56;;;2.46;100.00
24230;BME280;12362;50.004;8.006;2023-02-15T00:31:13;102202.50;;;2.29;100.00
24230;BME280;12362;50.004;8.006;2023-02-15T00:33:39;102193.22;;;2.37;100.00
24230;BME280;12362;50.004;8.006;2023-02-15T00:36:07;102190.66;;;2.37;100.00
24230;BME280;12362;50.004;8.006;2023-02-15T00:38:33;102192.38;;;2.40;100.00
24230;BME280;12362;50.004;8.006;2023-02-15T00:41:01;102201.06;;;2.48;100.00
24230;BME280;12362;50.004;8.006;2023-02-15T00:43:28;102196.59;;;2.35;100.00
24230;BME280;12362;50.004;8.006;2023-02-15T00:45:54;102197.50;;;2.40;100.00
24230;BME280;12362;50.004;8.006;2023-02-15T00:48:20;102196.63;;;2.36;100.00
24230;BME280;12362;50.004;8.006;2023-02-15T00:50:48;102187.25;;;2.38;100.00
24230;BME280;12362;50.004;8.006;2023-02-15T00:53:14;102187.16;;;2.32;100.00
24230;BME280;12362;50.004;8.006;2023-02-15T00:55:40;102190.50;;;2.27;100.00
24230;BME280;12362;50.004;8.006;2023-02-15T00:58:07;102193.16;;;2.33;100.00
24230;BME280;12362;50.004;8.006;2023-02-15T01:00:32;102182.91;;;2.33;100.00
24230;BME280;12362;50.004;8.006;2023-02-15T01:02:58;102186.31;;;2.30;100.00
24230;BME280;12362;50.004;8.006;2023-02-15T01:05:24;102184.63;;;2.34;100.00
24230;BME280;12362;50.004;8.006;2023-02-15T01:07:49;102178.63;;;2.32;100.00
24230;BME280;12362;50.004;8.006;2023-02-15T01:10:15;102178.69;;;2.38;100.00
24230;BME280;12362;50.004;8.006;2023-02-15T01:12:40;102177.78;;;2.33;100.00
24230;BME280;12362;50.004;8.006;2023-02-15T01:15:06;102172.72;;;2.39;100.00
24230;BME280;12362;50.004;8.006;2023-02-15T01:17:32;102185.47;;;2.34;100.00
24230;BME280;12362;50.004;8.006;2023-02-15T01:19:58;102179.47;;;2.32;100.00
24230;BME280;12362;50.004;8.006;2023-02-15T01:22:24;102182.94;;;2.36;100.00
24230;BME280;12362;50.004;8.006;2023-02-15T01:24:50;102181.22;;;2.35;100.00
24230;BME280;12362;50.004;8.006;2023-02-15T01:27:16;102181.19;;;2.30;100.00
24230;BME280;12362;50.004;8.006;2023-02-15T01:29:42;102182.13;;;2.37;100.00
24230;BME280;12362;50.004;8.006;2023-02-15T01:32:08;102189.75;;;2.35;100.00
24230;BME280;12362;50.004;8.006;2023-02-15T01:34:33;102181.25;;;2.38;100.00
24230;BME280;12362;50.004;8.006;2023-02-15T01:36:59;102176.94;;;2.35;100.00
24230;BME280;12362;50.004;8.006;2023-02-15T01:39:25;102178.69;;;2.36;100.00
24230;BME280;12362;50.004;8.006;2023-02-15T01:41:51;102177.88;;;2.42;100.00
24230;BME280;12362;50.004;8.006;2023-02-15T01:47:17;102178.78;;;2.42;100.00
24230;BME280;12362;50.004;8.006;2023-02-15T01:49:44;102165.06;;;2.40;100.00
24230;BME280;12362;50.004;8.006;2023-02-15T01:52:14;102162.47;;;2.39;100.00
24230;BME280;12362;50.004;8.006;2023-02-15T01:54:44;102162.47;;;2.39;100.00
24230;BME280;12362;50.004;8.006;2023-02-15T01:57:19;102165.81;;;2.33;100.00
24230;BME280;12362;50.004;8.006;2023-02-15T01:59:50;102158.91;;;2.26;100.00
24230;BME280;12362;50.004;8.006;2023-02-15T02:02:18;102157.19;;;2.27;100.00
24230;BME280;12362;50.004;8.006;2023-02-15T02:04:51;102150.38;;;2.27;100.00
24230;BME280;12362;50.004;8.006;2023-02-15T02:07:20;102146.97;;;2.28;100.00
24230;BME280;12362;50.004;8.006;2023-02-15T02:09:47;102142.59;;;2.21;100.00
24230;BME280;12362;50.004;8.006;2023-02-15T02:12:14;102146.03;;;2.22;100.00
24230;BME280;12362;50.004;8.006;2023-02-15T02:14:40;102148.66;;;2.26;100.00
24230;BME280;12362;50.004;8.006;2023-02-15T02:26:34;102153.72;;;2.23;100.00
24230;BME280;12362;50.004;8.006;2023-02-15T02:41:16;102143.47;;;2.22;100.00
24230;BME280;12362;50.004;8.006;2023-02-15T02:46:26;102135.75;;;2.19;100.00
24230;BME280;12362;50.004;8.006;2023-02-15T02:48:54;102139.25;;;2.25;100.00
24230;BME280;12362;50.004;8.006;2023-02-15T02:51:21;102134.19;;;2.31;100.00
24230;BME280;12362;50.004;8.006;2023-02-15T02:53:51;102130.78;;;2.31;100.00
24230;BME280;12362;50.004;8.006;2023-02-15T02:56:21;102124.75;;;2.29;100.00
24230;BME280;12362;50.004;8.006;2023-02-15T02:58:59;102127.16;;;2.15;100.00
24230;BME280;12362;50.004;8.006;2023-02-15T03:01:46;102127.16;;;2.15;100.00
24230;BME280;12362;50.004;8.006;2023-02-15T03:04:15;102127.06;;;2.06;100.00
24230;BME280;12362;50.004;8.006;2023-02-15T03:06:50;102123.69;;;2.10;100.00
24230;BME280;12362;50.004;8.006;2023-02-15T03:09:29;102115.19;;;2.14;100.00
24230;BME280;12362;50.004;8.006;2023-02-15T03:12:01;102108.28;;;2.09;100.00
24230;BME280;12362;50.004;8.006;2023-02-15T03:14:29;102116.81;;;2.06;100.00
24230;BME280;12362;50.004;8.006;2023-02-15T03:16:56;102101.44;;;2.08;100.00
24230;BME280;12362;50.004;8.006;2023-02-15T03:19:26;102102.28;;;2.07;100.00
24230;BME280;12362;50.004;8.006;2023-02-15T03:22:01;102102.22;;;2.01;100.00
24230;BME280;12362;50.004;8.006;2023-02-15T03:27:22;102102.50;;;2.22;100.00
24230;BME280;12362;50.004;8.006;2023-02-15T03:29:53;102101.41;;;2.05;100.00
24230;BME280;12362;50.004;8.006;2023-02-15T03:32:21;102097.13;;;2.02;100.00
24230;BME280;12362;50.004;8.006;2023-02-15T03:34:48;102093.63;;;1.96;100.00
24230;BME280;12362;50.004;8.006;2023-02-15T03:37:26;102095.38;;;2.01;100.00
24230;BME280;12362;50.004;8.006;2023-02-15T03:40:00;102096.22;;;2.00;100.00
24230;BME280;12362;50.004;8.006;2023-02-15T03:42:53;102099.56;;;1.93;100.00
24230;BME280;12362;50.004;8.006;2023-02-15T03:45:26;102100.47;;;1.98;100.00
24230;BME280;12362;50.004;8.006;2023-02-15T03:47:55;102097.13;;;2.02;100.00
24230;BME280;12362;50.004;8.006;2023-02-15T03:50:26;102095.34;;;1.98;100.00
24230;BME280;12362;50.004;8.006;2023-02-15T03:53:14;102099.56;;;1.93;100.00
24230;BME280;12362;50.004;8.006;2023-02-15T03:55:40;102099.66;;;2.01;100.00
24230;BME280;12362;50.004;8.006;2023-02-15T03:58:06;102097.91;;;1.97;100.00
24230;BME280;12362;50.004;8.006;2023-02-15T04:00:58;102087.63;;;1.95;100.00
24230;BME280;12362;50.004;8.006;2023-02-15T04:03:47;102094.41;;;1.90;100.00
24230;BME280;12362;50.004;8.006;2023-02-15T04:06:14;102094.34;;;1.86;100.00
24230;BME280;12362;50.004;8.006;2023-02-15T04:08:40;102085.75;;;1.82;100.00
24230;BME280;12362;50.004;8.006;2023-02-15T04:11:24;102091.69;;;1.80;100.00
24230;BME280;12362;50.004;8.006;2023-02-15T04:13:52;102093.50;;;1.90;100.00
24230;BME280;12362;50.004;8.006;2023-02-15T04:16:25;102092.78;;;1.97;100.00
24230;BME280;12362;50.004;8.006;2023-02-15T04:18:50;102098.72;;;1.94;100.00
24230;BME280;12362;50.004;8.006;2023-02-15T04:21:34;102103.84;;;1.94;100.00
24230;BME280;12362;50.004;8.006;2023-02-15T04:24:18;102107.31;;;1.98;100.00
24230;BME280;12362;50.004;8.006;2023-02-15T04:27:04;102109.88;;;1.99;100.00
24230;BME280;12362;50.004;8.006;2023-02-15T04:29:30;102108.09;;;1.95;100.00
24230;BME280;12362;50.004;8.006;2023-02-15T04:31:58;102106.31;;;1.87;100.00
24230;BME280;12362;50.004;8.006;2023-02-15T04:34:24;102108.09;;;1.92;100.00
24230;BME280;12362;50.004;8.006;2023-02-15T04:36:50;102109.75;;;1.90;100.00
24230;BME280;12362;50.004;8.006;2023-02-15T04:39:16;102114.81;;;1.86;100.00
24230;BME280;12362;50.004;8.006;2023-02-15T04:41:42;102113.78;;;1.74;100.00
24230;BME280;12362;50.004;8.006;2023-02-15T04:44:10;102111.31;;;1.79;100.00
24230;BME280;12362;50.004;8.006;2023-02-15T04:46:38;102106.38;;;1.93;100.00
24230;BME280;12362;50.004;8.006;2023-02-15T04:49:03;102105.63;;;2.00;100.00
24230;BME280;12362;50.004;8.006;2023-02-15T04:51:29;102096.13;;;1.93;100.00
24230;BME280;12362;50.004;8.006;2023-02-15T04:53:55;102091.81;;;1.89;100.00
24230;BME280;12362;50.004;8.006;2023-02-15T04:56:22;102095.22;;;1.89;100.00
24230;BME280;12362;50.004;8.006;2023-02-15T04:58:48;102091.00;;;1.91;100.00
24230;BME280;12362;50.004;8.006;2023-02-15T05:01:13;102093.50;;;1.87;100.00
24230;BME280;12362;50.004;8.006;2023-02-15T05:03:40;102082.38;;;1.85;100.00
24230;BME280;12362;50.004;8.006;2023-02-15T05:06:06;102086.56;;;1.80;100.00
24230;BME280;12362;50.004;8.006;2023-02-15T05:08:32;102094.22;;;1.77;100.00
24230;BME280;12362;50.004;8.006;2023-02-15T05:10:58;102089.13;;;1.80;100.00
24230;BME280;12362;50.004;8.006;2023-02-15T05:13:24;102082.25;;;1.77;100.00
24230;BME280;12362;50.004;8.006;2023-02-15T05:15:53;102077.19;;;1.80;100.00
24230;BME280;12362;50.004;8.006;2023-02-15T05:18:20;102081.50;;;1.83;100.00
24230;BME280;12362;50.004;8.006;2023-02-15T05:20:47;102076.31;;;1.77;100.00
24230;BME280;12362;50.004;8.006;2023-02-15T05:23:13;102073.75;;;1.78;100.00
24230;BME280;12362;50.004;8.006;2023-02-15T05:25:38;102075.63;;;1.91;100.00
24230;BME280;12362;50.004;8.006;2023-02-15T05:28:25;102079.94;;;1.95;100.00
24230;BME280;12362;50.004;8.006;2023-02-15T05:31:02;102077.34;;;1.92;100.00
24230;BME280;12362;50.004;8.006;2023-02-15T05:33:28;102077.31;;;1.89;100.00
24230;BME280;12362;50.004;8.006;2023-02-15T05:35:54;102075.59;;;1.90;100.00
24230;BME280;12362;50.004;8.006;2023-02-15T05:38:20;102079.88;;;1.89;100.00
24230;BME280;12362;50.004;8.006;2023-02-15T05:40:46;102084.09;;;1.87;100.00
24230;BME280;12362;50.004;8.006;2023-02-15T05:43:11;102088.38;;;1.88;100.00
24230;BME280;12362;50.004;8.006;2023-02-15T05:45:38;102085.03;;;1.92;100.00
24230;BME280;12362;50.004;8.006;2023-02-15T05:48:04;102081.66;;;1.95;100.00
24230;BME280;12362;50.004;8.006;2023-02-15T05:50:30;102074.91;;;2.01;100.00
24230;BME280;12362;50.004;8.006;2023-02-15T05:52:58;102081.66;;;1.95;100.00
24230;BME280;12362;50.004;8.006;2023-02-15T05:55:23;102075.47;;;1.81;100.00
24230;BME280;12362;50.004;8.006;2023-02-15T05:57:49;102079.06;;;1.93;100.00
24230;BME280;12362;50.004;8.006;2023-02-15T06:00:15;102078.16;;;1.90;100.00
24230;BME280;12362;50.004;8.006;2023-02-15T06:02:40;102085.78;;;1.84;100.00
24230;BME280;12362;50.004;8.006;2023-02-15T06:05:07;102092.56;;;1.82;100.00
24230;BME280;12362;50.004;8.006;2023-02-15T06:07:32;102090.84;;;1.81;100.00
24230;BME280;12362;50.004;8.006;2023-02-15T06:09:58;102098.41;;;1.74;100.00
24230;BME280;12362;50.004;8.006;2023-02-15T06:12:24;102105.97;;;1.63;100.00
24230;BME280;12362;50.004;8.006;2023-02-15T06:14:49;102098.41;;;1.71;100.00
24230;BME280;12362;50.004;8.006;2023-02-15T06:17:15;102099.25;;;1.71;100.00
24230;BME280;12362;50.004;8.006;2023-02-15T06:19:42;102102.69;;;1.72;100.00
24230;BME280;12362;50.004;8.006;2023-02-15T06:22:07;102103.63;;;1.79;100.00
24230;BME280;12362;50.004;8.006;2023-02-15T06:24:33;102105.25;;;1.73;100.00
24230;BME280;12362;50.004;8.006;2023-02-15T06:26:59;102106.13;;;1.75;100.00
24230;BME280;12362;50.004;8.006;2023-02-15T06:29:24;102096.72;;;1.74;100.00
24230;BME280;12362;50.004;8.006;2023-02-15T06:31:50;102107.09;;;1.81;100.00
24230;BME280;12362;50.004;8.006;2023-02-15T06:34:16;102111.19;;;1.71;100.00
24230;BME280;12362;50.004;8.006;2023-02-15T06:36:42;102116.19;;;1.63;100.00
24230;BME280;12362;50.004;8.006;2023-02-15T06:39:08;102111.16;;;1.69;100.00
24230;BME280;12362;50.004;8.006;2023-02-15T06:41:34;102111.16;;;1.69;100.00
24230;BME280;12362;50.004;8.006;2023-02-15T06:43:59;102115.44;;;1.69;100.00
24230;BME280;12362;50.004;8.006;2023-02-15T06:46:28;102124.72;;;1.62;100.00
24230;BME280;12362;50.004;8.006;2023-02-15T06:48:53;102118.72;;;1.62;100.00
24230;BME280;12362;50.004;8.006;2023-02-15T06:51:22;102120.41;;;1.60;100.00
24230;BME280;12362;50.004;8.006;2023-02-15T06:53:48;102122.94;;;1.58;100.00
24230;BME280;12362;50.004;8.006;2023-02-15T06:56:13;102128.13;;;1.63;100.00
24230;BME280;12362;50.004;8.006;2023-02-15T06:58:40;102127.03;;;1.49;100.00
24230;BME280;12362;50.004;8.006;2023-02-15T07:01:06;102126.19;;;1.47;100.00
24230;BME280;12362;50.004;8.006;2023-02-15T07:03:32;102123.72;;;1.54;100.00
24230;BME280;12362;50.004;8.006;2023-02-15T07:12:04;102125.84;;;1.80;100.00
24230;BME280;12362;50.004;8.006;2023-02-15T07:24:00;102124.13;;;1.81;100.00
24230;BME280;12362;50.004;8.006;2023-02-15T07:26:26;102122.56;;;1.89;100.00
24230;BME280;12362;50.004;8.006;2023-02-15T07:28:52;102120.88;;;1.92;100.00
24230;BME280;12362;50.004;8.006;2023-02-15T07:34:32;102123.34;;;1.86;100.00
24230;BME280;12362;50.004;8.006;2023-02-15T07:37:21;102119.00;;;1.79;100.00
24230;BME280;12362;50.004;8.006;2023-02-15T07:39:46;102119.94;;;1.86;100.00
24230;BME280;12362;50.004;8.006;2023-02-15T07:42:12;102127.69;;;1.90;100.00
24230;BME280;12362;50.004;8.006;2023-02-15T07:45:00;102119.00;;;1.79;100.00
24230;BME280;12362;50.004;8.006;2023-02-15T07:47:26;102125.72;;;1.72;100.00
24230;BME280;12362;50.004;8.006;2023-02-15T07:49:52;102125.59;;;1.64;100.00
24230;BME280;12362;50.004;8.006;2023-02-15T07:52:18;102120.44;;;1.63;100.00
24230;BME280;12362;50.004;8.006;2023-02-15T07:54:46;102113.59;;;1.62;100.00
24230;BME280;12362;50.004;8.006;2023-02-15T07:57:14;102115.47;;;1.72;100.00
24230;BME280;12362;50.004;8.006;2023-02-15T07:59:40;102116.38;;;1.77;100.00
24230;BME280;12362;50.004;8.006;2023-02-15T08:02:10;102119.13;;;1.88;100.00
24230;BME280;12362;50.004;8.006;2023-02-15T08:04:36;102115.59;;;1.82;100.00
24230;BME280;12362;50.004;8.006;2023-02-15T08:07:01;102114.78;;;1.83;100.00
24230;BME280;12362;50.004;8.006;2023-02-15T08:09:27;102111.25;;;1.77;100.00
24230;BME280;12362;50.004;8.006;2023-02-15T08:11:53;102104.53;;;1.83;100.00
24230;BME280;12362;50.004;8.006;2023-02-15T08:14:20;102110.47;;;1.80;100.00
24230;BME280;12362;50.004;8.006;2023-02-15T08:16:52;102109.50;;;1.73;100.00
24230;BME280;12362;50.004;8.006;2023-02-15T08:19:26;102109.53;;;1.76;100.00
24230;BME280;12362;50.004;8.006;2023-02-15T08:22:02;102107.84;;;1.76;100.00
24230;BME280;12362;50.004;8.006;2023-02-15T08:24:35;102098.69;;;1.91;100.00
24230;BME280;12362;50.004;8.006;2023-02-15T08:27:05;102095.50;;;2.09;100.00
24230;BME280;12362;50.004;8.006;2023-02-15T08:29:37;102092.94;;;2.10;100.00
24230;BME280;12362;50.004;8.006;2023-02-15T08:32:13;102092.28;;;2.25;100.00
24230;BME280;12362;50.004;8.006;2023-02-15T08:34:41;102088.88;;;2.27;100.00
24230;BME280;12362;50.004;8.006;2023-02-15T08:37:07;102096.47;;;2.20;100.00
24230;BME280;12362;50.004;8.006;2023-02-15T08:39:33;102087.13;;;2.22;100.00
24230;BME280;12362;50.004;8.006;2023-02-15T08:41:59;102081.38;;;2.44;100.00
24230;BME280;12362;50.004;8.006;2023-02-15T08:44:24;102083.81;;;2.33;100.00
24230;BME280;12362;50.004;8.006;2023-02-15T08:46:50;102081.22;;;2.29;100.00
24230;BME280;12362;50.004;8.006;2023-02-15T08:49:20;102073.69;;;2.42;100.00
24230;BME280;12362;50.004;8.006;2023-02-15T08:51:47;102069.94;;;2.15;100.00
24230;BME280;12362;50.004;8.006;2023-02-15T08:54:15;102070.03;;;2.22;100.00
24230;BME280;12362;50.004;8.006;2023-02-15T08:56:42;102074.38;;;2.28;100.00
24230;BME280;12362;50.004;8.006;2023-02-15T08:59:22;102065.75;;;2.21;100.00
24230;BME280;12362;50.004;8.006;2023-02-15T09:01:50;102067.41;;;2.16;100.00
24230;BME280;12362;50.004;8.006;2023-02-15T09:04:16;102060.47;;;2.09;100.00
24230;BME280;12362;50.004;8.006;2023-02-15T09:06:43;102065.75;;;2.21;100.00
24230;BME280;12362;50.004;8.006;2023-02-15T09:09:10;102068.16;;;2.06;100.00
24230;BME280;12362;50.004;8.006;2023-02-15T09:11:39;102062.97;;;2.03;100.00
24230;BME280;12362;50.004;8.006;2023-02-15T09:14:11;102060.53;;;2.14;100.00
24230;BME280;12362;50.004;8.006;2023-02-15T09:16:39;102060.75;;;2.33;100.00
24230;BME280;12362;50.004;8.006;2023-02-15T09:19:06;102059.88;;;2.30;100.00
24230;BME280;12362;50.004;8.006;2023-02-15T09:21:37;102060.66;;;2.23;100.00
24230;BME280;12362;50.004;8.006;2023-02-15T09:24:08;102059.88;;;2.28;100.00
24230;BME280;12362;50.004;8.006;2023-02-15T09:26:37;102068.53;;;2.41;100.00
24230;BME280;12362;50.004;8.006;2023-02-15T09:29:06;102060.94;;;2.47;100.00
24230;BME280;12362;50.004;8.006;2023-02-15T09:31:38;102067.94;;;2.64;100.00
24230;BME280;12362;50.004;8.006;2023-02-15T09:34:04;102065.22;;;2.48;100.00
24230;BME280;12362;50.004;8.006;2023-02-15T09:36:38;102069.41;;;2.41;100.00
24230;BME280;12362;50.004;8.006;2023-02-15T10:11:17;102066.63;;;3.09;100.00
24230;BME280;12362;50.004;8.006;2023-02-15T10:19:37;102076.75;;;2.90;100.00
24230;BME280;12362;50.004;8.006;2023-02-15T10:27:50;102067.88;;;2.58;100.00
24230;BME280;12362;50.004;8.006;2023-02-15T10:30:53;102070.63;;;2.77;100.00
24230;BME280;12362;50.004;8.006;2023-02-15T10:33:34;102068.13;;;2.86;100.00
24230;BME280;12362;50.004;8.006;2023-02-15T10:39:03;102049.44;;;2.99;100.00
24230;BME280;12362;50.004;8.006;2023-02-15T10:47:07;102064.63;;;2.75;100.00
24230;BME280;12362;50.004;8.006;2023-02-15T10:50:29;102059.56;;;2.81;100.00
24230;BME280;12362;50.004;8.006;2023-02-15T11:03:03;102033.28;;;3.09;100.00
24230;BME280;12362;50.004;8.006;2023-02-15T11:05:39;102042.88;;;3.33;100.00
24230;BME280;12362;50.004;8.006;2023-02-15T11:08:09;102027.47;;;3.33;100.00
24230;BME280;12362;50.004;8.006;2023-02-15T11:13:14;102025.91;;;3.58;100.00
24230;BME280;12362;50.004;8.006;2023-02-15T11:15:57;102027.56;;;3.51;100.00
24230;BME280;12362;50.004;8.006;2023-02-15T11:18:32;102018.91;;;3.29;100.00
24230;BME280;12362;50.004;8.006;2023-02-15T11:21:02;102020.63;;;3.35;100.00
24230;BME280;12362;50.004;8.006;2023-02-15T11:23:32;102013.06;;;3.54;100.00
24230;BME280;12362;50.004;8.006;2023-02-15T11:26:08;102017.41;;;3.74;100.00
24230;BME280;12362;50.004;8.006;2023-02-15T11:28:43;102016.44;;;3.50;100.00
24230;BME280;12362;50.004;8.006;2023-02-15T11:31:22;102008.69;;;3.38;100.00
24230;BME280;12362;50.004;8.006;2023-02-15T11:34:00;102001.81;;;3.39;100.00
24230;BME280;12362;50.004;8.006;2023-02-15T11:36:37;101999.34;;;3.52;100.00
24230;BME280;12362;50.004;8.006;2023-02-15T11:39:10;102000.16;;;3.42;100.00
24230;BME280;12362;50.004;8.006;2023-02-15T11:41:39;101989.03;;;3.46;100.00
24230;BME280;12362;50.004;8.006;2023-02-15T11:44:31;101987.38;;;3.57;100.00
24230;BME280;12362;50.004;8.006;2023-02-15T11:46:58;101987.34;;;3.53;100.00
24230;BME280;12362;50.004;8.006;2023-02-15T11:49:34;101974.59;;;3.63;100.00
24230;BME280;12362;50.004;8.006;2023-02-15T11:52:10;101971.22;;;3.79;100.00
24230;BME280;12362;50.004;8.006;2023-02-15T11:54:41;101968.66;;;3.82;100.00
24230;BME280;12362;50.004;8.006;2023-02-15T12:00:06;101962.69;;;3.81;100.00
24230;BME280;12362;50.004;8.006;2023-02-15T12:02:37;101964.41;;;3.90;100.00
24230;BME280;12362;50.004;8.006;2023-02-15T12:05:10;101966.94;;;3.75;100.00
24230;BME280;12362;50.004;8.006;2023-02-15T12:10:29;101961.78;;;3.75;100.00
24230;BME280;12362;50.004;8.006;2023-02-15T12:13:13;101965.28;;;4.04;100.00
24230;BME280;12362;50.004;8.006;2023-02-15T12:15:43;101964.47;;;4.21;100.00
24230;BME280;12362;50.004;8.006;2023-02-15T12:18:36;101958.44;;;3.98;100.00
24230;BME280;12362;50.004;8.006;2023-02-15T12:21:34;101953.38;;;4.24;100.00
24230;BME280;12362;50.004;8.006;2023-02-15T12:24:34;101951.59;;;4.05;100.00
24230;BME280;12362;50.004;8.006;2023-02-15T12:27:15;101944.75;;;4.16;100.00
24230;BME280;12362;50.004;8.006;2023-02-15T12:29:46;101949.94;;;4.29;100.00
24230;BME280;12362;50.004;8.006;2023-02-15T12:32:21;101948.19;;;4.15;100.00
24230;BME280;12362;50.004;8.006;2023-02-15T12:34:48;101941.34;;;4.21;100.00
24230;BME280;12362;50.004;8.006;2023-02-15T12:37:24;101939.66;;;4.25;100.00
24230;BME280;12362;50.004;8.006;2023-02-15T12:39:59;101938.78;;;4.14;100.00
24230;BME280;12362;50.004;8.006;2023-02-15T12:42:26;101943.03;;;4.06;100.00
24230;BME280;12362;50.004;8.006;2023-02-15T12:44:59;101935.31;;;3.88;100.00
24230;BME280;12362;50.004;8.006;2023-02-15T12:47:27;101926.69;;;3.75;100.00
24230;BME280;12362;50.004;8.006;2023-02-15T12:50:23;101926.72;;;3.87;100.00
24230;BME280;12362;50.004;8.006;2023-02-15T12:53:06;101926.75;;;3.98;100.00
24230;BME280;12362;50.004;8.006;2023-02-15T12:55:33;101912.19;;;4.03;100.00
24230;BME280;12362;50.004;8.006;2023-02-15T13:00:40;101908.78;;;4.19;100.00
24230;BME280;12362;50.004;8.006;2023-02-15T13:03:16;101901.91;;;4.03;100.00
24230;BME280;12362;50.004;8.006;2023-02-15T13:05:44;101901.09;;;4.08;100.00
24230;BME280;12362;50.004;8.006;2023-02-15T13:08:18;101900.22;;;4.03;100.00
24230;BME280;12362;50.004;8.006;2023-02-15T13:11:07;101895.06;;;4.03;100.00
24230;BME280;12362;50.004;8.006;2023-02-15T13:14:03;101893.38;;;4.35;100.00
24230;BME280;12362;50.004;8.006;2023-02-15T13:16:44;101888.25;;;4.44;100.00
24230;BME280;12362;50.004;8.006;2023-02-15T13:19:15;101883.94;;;4.50;100.00
24230;BME280;12362;50.004;8.006;2023-02-15T13:21:45;101881.38;;;4.30;100.00
24230;BME280;12362;50.004;8.006;2023-02-15T13:24:24;101889.13;;;4.36;100.00
24230;BME280;12362;50.004;8.006;2023-02-15T13:26:52;101876.25;;;4.37;100.00
24230;BME280;12362;50.004;8.006;2023-02-15T13:29:28;101884.81;;;4.55;100.00
24230;BME280;12362;50.004;8.006;2023-02-15T13:31:55;101880.53;;;4.46;100.00
24230;BME280;12362;50.004;8.006;2023-02-15T13:34:26;101874.53;;;4.47;100.00
24230;BME280;12362;50.004;8.006;2023-02-15T13:37:06;101867.69;;;4.41;100.00
24230;BME280;12362;50.004;8.006;2023-02-15T13:40:04;101868.53;;;4.30;100.00
24230;BME280;12362;50.004;8.006;2023-02-15T13:46:08;101853.97;;;4.29;100.00
24230;BME280;12362;50.004;8.006;2023-02-15T13:51:20;101852.25;;;4.34;100.00
24230;BME280;12362;50.004;8.006;2023-02-15T13:54:22;101854.81;;;4.35;100.00
24230;BME280;12362;50.004;8.006;2023-02-15T14:05:14;101857.41;;;4.53;100.00
24230;BME280;12362;50.004;8.006;2023-02-15T14:38:58;101825.56;;;4.94;100.00
24230;BME280;12362;50.004;8.006;2023-02-15T14:47:32;101829.03;;;4.80;100.00
24230;BME280;12362;50.004;8.006;2023-02-15T15:01:35;101825.69;;;4.47;100.00
24230;BME280;12362;50.004;8.006;2023-02-15T15:04:06;101830.81;;;4.63;100.00
24230;BME280;12362;50.004;8.006;2023-02-15T15:06:36;101833.34;;;4.64;100.00
24230;BME280;12362;50.004;8.006;2023-02-15T15:09:20;101825.63;;;4.79;100.00
24230;BME280;12362;50.004;8.006;2023-02-15T15:11:50;101827.31;;;4.85;100.00
24230;BME280;12362;50.004;8.006;2023-02-15T15:17:01;101818.75;;;4.75;100.00
24230;BME280;12362;50.004;8.006;2023-02-15T15:22:32;101811.06;;;4.74;100.00
24230;BME280;12362;50.004;8.006;2023-02-15T15:25:10;101817.13;;;4.43;100.00
24230;BME280;12362;50.004;8.006;2023-02-15T15:38:45;101822.19;;;4.74;100.00
24230;BME280;12362;50.004;8.006;2023-02-15T15:41:49;101821.41;;;4.53;100.00
24230;BME280;12362;50.004;8.006;2023-02-15T15:44:51;101826.47;;;4.75;100.00
24230;BME280;12362;50.004;8.006;2023-02-15T15:50:15;101822.25;;;4.42;100.00
24230;BME280;12362;50.004;8.006;2023-02-15T15:53:02;101817.13;;;4.47;100.00
24230;BME280;12362;50.004;8.006;2023-02-15T15:55:30;101812.78;;;4.57;100.00
24230;BME280;12362;50.004;8.006;2023-02-15T15:58:01;101815.38;;;4.58;100.00
24230;BME280;12362;50.004;8.006;2023-02-15T16:00:38;101820.53;;;4.41;100.00
24230;BME280;12362;50.004;8.006;2023-02-15T16:03:15;101824.84;;;4.37;100.00
24230;BME280;12362;50.004;8.006;2023-02-15T16:05:41;101823.09;;;4.60;100.00
24230;BME280;12362;50.004;8.006;2023-02-15T16:08:07;101818.84;;;4.44;100.00
24230;BME280;12362;50.004;8.006;2023-02-15T16:10:33;101820.53;;;4.47;100.00
24230;BME280;12362;50.004;8.006;2023-02-15T16:13:01;101824.84;;;4.30;100.00
24230;BME280;12362;50.004;8.006;2023-02-15T16:15:34;101815.44;;;4.23;100.00
24230;BME280;12362;50.004;8.006;2023-02-15T16:18:01;101814.53;;;4.34;100.00
24230;BME280;12362;50.004;8.006;2023-02-15T16:20:35;101808.53;;;4.40;100.00
24230;BME280;12362;50.004;8.006;2023-02-15T16:28:32;101808.56;;;4.34;100.00
24230;BME280;12362;50.004;8.006;2023-02-15T16:31:24;101808.56;;;4.23;100.00
24230;BME280;12362;50.004;8.006;2023-02-15T16:33:53;101818.84;;;4.11;100.00
24230;BME280;12362;50.004;8.006;2023-02-15T16:41:22;101815.44;;;4.30;100.00
24230;BME280;12362;50.004;8.006;2023-02-15T16:43:50;101818.88;;;4.13;100.00
24230;BME280;12362;50.004;8.006;2023-02-15T16:46:26;101821.41;;;4.10;100.00
24230;BME280;12362;50.004;8.006;2023-02-15T16:48:54;101822.28;;;4.13;100.00